createdAt,value
2024-01-11T00:01:48.787Z,44.13
2024-01-11T00:04:22.148Z,43.33
2024-01-11T00:06:53.983Z,37.20
2024-01-11T00:09:24.827Z,38.50
2024-01-11T00:11:57.553Z,38.67
2024-01-11T00:14:28.391Z,37.75
2024-01-11T00:16:59.062Z,41.55
2024-01-11T00:19:29.550Z,47.15
2024-01-11T00:22:00.612Z,39.33
2024-01-11T00:24:39.275Z,42.08
2024-01-11T00:27:10.894Z,41.97
2024-01-11T00:29:43.729Z,42.65
2024-01-11T00:32:14.093Z,40.33
2024-01-11T00:34:45.036Z,41.13
2024-01-11T00:37:20.850Z,48.97
2024-01-11T00:39:53.728Z,41.03
2024-01-11T00:42:24.053Z,39.05
2024-01-11T00:44:54.690Z,38.65
2024-01-11T00:47:25.120Z,40.17
2024-01-11T00:49:56.246Z,42.38
2024-01-11T00:52:27.355Z,40.95
2024-01-11T00:54:58.733Z,42.83
2024-01-11T00:57:28.933Z,44.22
2024-01-11T01:00:01.673Z,39.70
2024-01-11T01:02:44.709Z,43.42
2024-01-11T01:05:18.333Z,38.17
2024-01-11T01:10:22.180Z,41.22
2024-01-11T01:12:52.738Z,45.58
2024-01-11T01:15:23.444Z,43.38
2024-01-11T01:17:55.063Z,40.13
2024-01-11T01:20:26.162Z,40.88
2024-01-11T01:22:59.378Z,40.72
2024-01-11T01:25:33.920Z,40.78
2024-01-11T01:28:05.037Z,43.00
2024-01-11T01:30:40.066Z,37.42
2024-01-11T01:33:27.013Z,52.05
2024-01-11T01:35:58.563Z,48.20
2024-01-11T01:38:29.035Z,44.38
2024-01-11T01:40:59.521Z,39.70
2024-01-11T01:43:34.715Z,48.67
2024-01-11T01:46:09.656Z,41.58
2024-01-11T01:48:42.612Z,38.10
2024-01-11T01:51:13.334Z,41.50
2024-01-11T01:53:43.948Z,45.92
2024-01-11T01:56:22.712Z,44.03
2024-01-11T01:58:54.630Z,48.75
2024-01-11T02:01:28.893Z,46.90
2024-01-11T02:03:59.854Z,42.85
2024-01-11T02:06:33.649Z,45.65
2024-01-11T02:09:12.146Z,39.90
2024-01-11T02:11:45.285Z,40.10
2024-01-11T02:14:18.493Z,41.08
2024-01-11T02:16:49.418Z,40.67
2024-01-11T02:19:23.448Z,45.50
2024-01-11T02:21:58.985Z,39.58
2024-01-11T02:24:29.465Z,41.45
2024-01-11T02:27:05.256Z,38.65
2024-01-11T02:29:36.195Z,46.35
2024-01-11T02:32:13.880Z,43.03
2024-01-11T02:34:44.195Z,44.15
2024-01-11T02:37:17.882Z,38.70
2024-01-11T02:39:50.070Z,39.50
2024-01-11T02:42:21.734Z,42.05
2024-01-11T02:44:58.125Z,43.75
2024-01-11T02:47:29.875Z,48.40
2024-01-11T02:50:00.772Z,50.00
2024-01-11T02:52:39.728Z,42.65
2024-01-11T02:55:13.044Z,38.47
2024-01-11T02:57:45.535Z,41.47
2024-01-11T03:00:16.180Z,38.75
2024-01-11T03:02:52.908Z,48.42
2024-01-11T03:05:23.968Z,43.28
2024-01-11T03:07:55.421Z,44.78
2024-01-11T03:10:26.538Z,47.33
2024-01-11T03:13:01.704Z,45.33
2024-01-11T03:15:35.489Z,44.08
2024-01-11T03:18:09.118Z,49.53
2024-01-11T03:20:42.543Z,44.47
2024-01-11T03:23:14.934Z,50.95
2024-01-11T03:25:45.358Z,50.67
2024-01-11T03:28:20.220Z,35.67
2024-01-11T03:30:51.132Z,44.63
2024-01-11T03:33:34.727Z,47.53
2024-01-11T03:36:14.742Z,43.08
2024-01-11T03:38:50.712Z,47.70
2024-01-11T03:41:22.750Z,43.63
2024-01-11T03:43:53.960Z,57.13
2024-01-11T03:46:27.159Z,49.05
2024-01-11T03:48:58.451Z,48.95
2024-01-11T03:51:31.180Z,54.35
2024-01-11T03:54:02.023Z,49.10
2024-01-11T03:56:37.345Z,56.33
2024-01-11T04:01:42.408Z,53.40
2024-01-11T04:04:14.570Z,51.40
2024-01-11T04:06:45.456Z,47.25
2024-01-11T04:09:16.390Z,55.90
2024-01-11T04:11:46.926Z,48.17
2024-01-11T04:16:50.399Z,52.33
2024-01-11T04:19:23.989Z,64.07
2024-01-11T04:21:56.601Z,52.22
2024-01-11T04:24:26.926Z,46.60
2024-01-11T04:26:57.771Z,49.55
2024-01-11T04:29:28.658Z,51.10
2024-01-11T04:32:02.968Z,51.83
2024-01-11T04:34:37.332Z,53.65
2024-01-11T04:37:08.254Z,53.15
2024-01-11T04:39:40.492Z,49.97
2024-01-11T04:42:13.594Z,55.97
2024-01-11T04:44:46.344Z,54.78
2024-01-11T04:47:21.160Z,48.95
2024-01-11T04:49:56.712Z,62.05
2024-01-11T04:52:29.553Z,48.58
2024-01-11T04:55:02.021Z,51.40
2024-01-11T04:57:38.049Z,50.25
2024-01-11T05:00:09.790Z,54.25
2024-01-11T05:02:58.850Z,57.85
2024-01-11T05:05:29.559Z,58.10
2024-01-11T05:08:00.245Z,51.58
2024-01-11T05:10:33.910Z,54.70
2024-01-11T05:13:08.773Z,47.65
2024-01-11T05:15:40.372Z,57.05
2024-01-11T05:18:16.686Z,47.75
2024-01-11T05:20:50.933Z,52.50
2024-01-11T05:23:21.913Z,48.47
2024-01-11T05:25:54.655Z,42.60
2024-01-11T05:28:25.101Z,55.03
2024-01-11T05:30:56.389Z,52.58
2024-01-11T05:33:35.723Z,46.25
2024-01-11T05:36:07.267Z,51.38
2024-01-11T05:38:38.102Z,55.78
2024-01-11T05:41:11.871Z,53.83
2024-01-11T05:43:42.648Z,57.45
2024-01-11T05:46:13.025Z,49.05
2024-01-11T05:48:47.099Z,58.28
2024-01-11T05:51:17.805Z,57.10
2024-01-11T05:53:51.514Z,48.70
2024-01-11T05:56:25.526Z,57.05
2024-01-11T05:58:56.123Z,57.30
2024-01-11T06:01:28.324Z,49.78
2024-01-11T06:03:59.925Z,54.88
2024-01-11T06:06:31.045Z,51.08
2024-01-11T06:09:05.806Z,53.92
2024-01-11T06:11:42.881Z,58.00
2024-01-11T06:14:13.412Z,55.65
2024-01-11T06:16:48.622Z,54.55
2024-01-11T06:19:19.731Z,58.83
2024-01-11T06:21:51.330Z,46.22
2024-01-11T06:24:23.957Z,51.38
2024-01-11T06:26:57.839Z,54.92
2024-01-11T06:29:28.541Z,50.15
2024-01-11T06:32:02.340Z,54.70
2024-01-11T06:34:33.173Z,51.60
2024-01-11T06:37:06.889Z,52.03
2024-01-11T06:39:37.363Z,54.55
2024-01-11T06:42:08.350Z,57.33
2024-01-11T06:44:42.405Z,52.28
2024-01-11T06:47:15.843Z,53.15
2024-01-11T06:52:23.015Z,56.75
2024-01-11T06:54:53.919Z,50.22
2024-01-11T06:57:26.096Z,60.95
2024-01-11T06:59:59.242Z,50.22
2024-01-11T07:02:31.281Z,52.70
2024-01-11T07:05:05.506Z,49.67
2024-01-11T07:07:37.243Z,55.03
2024-01-11T07:10:12.242Z,49.13
2024-01-11T07:12:49.350Z,53.80
2024-01-11T07:15:19.705Z,50.65
2024-01-11T07:17:54.809Z,55.63
2024-01-11T07:20:26.037Z,52.42
2024-01-11T07:22:56.954Z,55.88
2024-01-11T07:25:27.716Z,52.28
2024-01-11T07:28:01.158Z,53.05
2024-01-11T07:30:33.205Z,55.95
2024-01-11T07:33:23.627Z,55.25
2024-01-11T07:35:54.722Z,62.13
2024-01-11T07:38:28.394Z,50.67
2024-01-11T07:40:59.296Z,55.58
2024-01-11T07:43:32.320Z,48.08
2024-01-11T07:46:13.241Z,51.65
2024-01-11T07:48:44.051Z,48.80
2024-01-11T07:51:15.134Z,49.78
2024-01-11T07:53:50.487Z,56.63
2024-01-11T07:56:23.868Z,47.25
2024-01-11T07:58:56.665Z,57.88
2024-01-11T08:01:27.290Z,39.90
2024-01-11T08:09:11.821Z,57.72
2024-01-11T08:11:51.007Z,60.13
2024-01-11T08:14:25.950Z,54.25
2024-01-11T08:16:59.856Z,57.92
2024-01-11T08:19:31.634Z,53.83
2024-01-11T08:22:06.683Z,53.55
2024-01-11T08:24:39.519Z,55.85
2024-01-11T08:27:09.846Z,50.33
2024-01-11T08:29:43.462Z,55.25
2024-01-11T08:32:23.478Z,50.78
2024-01-11T08:35:01.000Z,56.40
2024-01-11T08:37:32.694Z,48.20
2024-01-11T08:40:05.896Z,44.03
2024-01-11T08:42:39.305Z,56.40
2024-01-11T08:45:11.402Z,52.38
2024-01-11T08:47:54.501Z,58.25
2024-01-11T08:50:26.103Z,54.47
2024-01-11T08:52:58.227Z,58.35
2024-01-11T08:55:30.821Z,51.55
2024-01-11T08:58:01.271Z,55.75
2024-01-11T09:00:32.634Z,49.15
2024-01-11T09:03:24.542Z,62.28
2024-01-11T09:05:58.594Z,56.92
2024-01-11T09:08:31.248Z,50.05
2024-01-11T09:11:03.625Z,47.17
2024-01-11T09:13:36.663Z,54.92
2024-01-11T09:16:10.752Z,48.28
2024-01-11T09:18:42.808Z,51.47
2024-01-11T09:21:19.653Z,50.40
2024-01-11T09:23:50.088Z,52.25
2024-01-11T09:26:20.734Z,50.72
2024-01-11T09:28:51.253Z,50.03
2024-01-11T09:31:26.808Z,55.53
2024-01-11T09:33:58.651Z,51.90
2024-01-11T09:36:30.197Z,42.92
2024-01-11T09:39:03.712Z,49.10
2024-01-11T09:41:35.950Z,55.90
2024-01-11T09:44:09.691Z,47.53
2024-01-11T09:46:43.625Z,51.08
2024-01-11T09:49:14.581Z,42.70
2024-01-11T09:51:48.933Z,44.05
2024-01-11T09:54:22.874Z,45.42
2024-01-11T09:56:57.446Z,39.42
2024-01-11T09:59:28.926Z,42.83
2024-01-11T10:02:02.762Z,46.30
2024-01-11T10:04:35.772Z,44.90
2024-01-11T10:07:08.752Z,46.67
2024-01-11T10:09:40.130Z,47.42
2024-01-11T10:12:13.332Z,43.28
2024-01-11T10:14:44.101Z,38.90
2024-01-11T10:17:21.748Z,46.28
2024-01-11T10:20:00.948Z,43.67
2024-01-11T10:22:34.443Z,48.33
2024-01-11T10:25:13.873Z,51.97
2024-01-11T10:30:21.602Z,48.08
2024-01-11T10:32:56.713Z,50.92
2024-01-11T10:35:29.616Z,43.97
2024-01-11T10:38:02.509Z,45.90
2024-01-11T10:40:39.590Z,49.78
2024-01-11T10:43:16.964Z,46.40
2024-01-11T10:45:55.217Z,39.55
2024-01-11T10:48:29.173Z,40.63
2024-01-11T10:51:09.842Z,35.33
2024-01-11T10:53:47.247Z,40.72
2024-01-11T10:56:20.899Z,39.78
2024-01-11T10:58:51.908Z,38.10
2024-01-11T11:01:25.467Z,36.97
2024-01-11T11:03:58.826Z,36.85
2024-01-11T11:06:31.773Z,44.05
2024-01-11T11:09:04.715Z,38.92
2024-01-11T11:11:39.320Z,34.63
2024-01-11T11:14:13.351Z,38.45
2024-01-11T11:16:48.731Z,35.95
2024-01-11T11:19:21.737Z,34.63
2024-01-11T11:21:53.608Z,38.75
2024-01-11T11:24:24.400Z,40.00
2024-01-11T11:26:58.573Z,40.80
2024-01-11T11:29:32.021Z,36.55
2024-01-11T11:32:03.122Z,37.25
2024-01-11T11:34:46.994Z,37.35
2024-01-11T11:37:26.483Z,36.55
2024-01-11T11:40:02.409Z,32.38
2024-01-11T11:42:41.158Z,37.92
2024-01-11T11:45:15.445Z,31.27
2024-01-11T11:47:48.521Z,37.45
2024-01-11T11:52:57.391Z,38.90
2024-01-11T11:55:28.665Z,35.85
2024-01-11T11:57:59.328Z,39.78
2024-01-11T12:00:35.736Z,32.70
2024-01-11T12:03:15.660Z,29.27
2024-01-11T12:05:47.627Z,32.17
2024-01-11T12:08:18.889Z,33.83
2024-01-11T12:10:52.128Z,32.75
2024-01-11T12:13:22.900Z,35.17
2024-01-11T12:15:53.075Z,35.88
2024-01-11T12:18:25.917Z,36.30
2024-01-11T12:20:58.637Z,38.23
2024-01-11T12:23:36.128Z,32.58
2024-01-11T12:26:09.132Z,31.92
2024-01-11T12:28:41.810Z,31.83
2024-01-11T12:31:14.139Z,37.20
2024-01-11T12:33:47.670Z,33.58
2024-01-11T12:36:19.440Z,31.40
2024-01-11T12:38:53.385Z,35.20
2024-01-11T12:41:31.890Z,39.92
2024-01-11T12:44:02.721Z,38.63
2024-01-11T12:46:34.067Z,33.25
2024-01-11T12:49:07.274Z,39.72
2024-01-11T12:51:41.250Z,35.28
2024-01-11T12:54:20.668Z,33.90
2024-01-11T12:56:52.308Z,32.22
2024-01-11T12:59:29.179Z,34.58
2024-01-11T13:02:06.588Z,32.40
2024-01-11T13:04:40.576Z,30.63
2024-01-11T13:07:11.221Z,34.70
2024-01-11T13:09:43.896Z,38.20
2024-01-11T13:12:17.061Z,28.42
2024-01-11T13:14:48.726Z,35.90
2024-01-11T13:17:22.547Z,32.40
2024-01-11T13:19:53.327Z,33.97
2024-01-11T13:22:29.708Z,36.70
2024-01-11T13:25:01.684Z,28.98
2024-01-11T13:27:35.574Z,40.40
2024-01-11T13:30:10.057Z,27.42
2024-01-11T13:32:59.734Z,33.20
2024-01-11T13:35:45.132Z,32.13
2024-01-11T13:38:15.590Z,31.70
2024-01-11T13:40:51.017Z,29.20
2024-01-11T13:43:24.153Z,33.53
2024-01-11T13:46:05.841Z,28.40
2024-01-11T13:48:39.044Z,29.92
2024-01-11T13:51:14.350Z,29.35
2024-01-11T13:53:48.190Z,27.08
2024-01-11T13:56:20.379Z,37.40
2024-01-11T13:58:52.700Z,29.10
2024-01-11T14:01:23.640Z,26.30
2024-01-11T14:03:56.811Z,25.25
2024-01-11T14:06:27.742Z,32.08
2024-01-11T14:09:01.435Z,27.92
2024-01-11T14:11:33.762Z,26.17
2024-01-11T14:14:05.041Z,27.35
2024-01-11T14:16:36.136Z,26.73
2024-01-11T14:19:06.562Z,25.45
2024-01-11T14:21:37.881Z,32.28
2024-01-11T14:24:09.644Z,25.90
2024-01-11T14:26:40.722Z,24.17
2024-01-11T14:29:12.296Z,27.58
2024-01-11T14:31:44.645Z,26.02
2024-01-11T14:34:18.582Z,22.17
2024-01-11T14:36:49.078Z,24.60
2024-01-11T14:39:19.953Z,22.40
2024-01-11T14:41:51.029Z,24.27
2024-01-11T14:44:21.593Z,30.65
2024-01-11T14:46:52.981Z,24.40
2024-01-11T14:49:23.672Z,23.40
2024-01-11T14:51:54.577Z,25.60
2024-01-11T14:54:26.376Z,23.55
2024-01-11T14:56:59.074Z,25.67
2024-01-11T14:59:33.483Z,28.27
2024-01-11T15:02:05.815Z,26.83
2024-01-11T15:04:40.680Z,25.58
2024-01-11T15:07:14.166Z,26.48
2024-01-11T15:09:44.855Z,26.25
2024-01-11T15:12:16.155Z,27.33
2024-01-11T15:14:48.077Z,29.70
2024-01-11T15:17:19.560Z,25.67
2024-01-11T15:19:50.517Z,27.73
2024-01-11T15:22:21.040Z,30.50
2024-01-11T15:24:54.779Z,25.05
2024-01-11T15:27:25.782Z,24.15
2024-01-11T15:29:59.289Z,24.10
2024-01-11T15:35:13.625Z,27.63
2024-01-11T15:37:49.759Z,27.88
2024-01-11T15:40:22.880Z,29.20
2024-01-11T15:45:26.828Z,26.40
2024-01-11T15:47:57.872Z,25.60
2024-01-11T15:50:32.067Z,29.45
2024-01-11T15:53:08.187Z,28.00
2024-01-11T15:55:41.342Z,30.17
2024-01-11T15:58:16.066Z,29.55
2024-01-11T16:00:47.755Z,26.92
2024-01-11T16:03:32.216Z,27.33
2024-01-11T16:06:07.455Z,23.40
2024-01-11T16:08:40.695Z,18.63
2024-01-11T16:11:11.122Z,22.15
2024-01-11T16:13:45.223Z,25.13
2024-01-11T16:16:19.052Z,22.65
2024-01-11T16:18:50.810Z,21.02
2024-01-11T16:21:21.150Z,19.27
2024-01-11T16:23:51.542Z,15.85
2024-01-11T16:26:25.345Z,15.45
2024-01-11T16:28:56.505Z,14.40
2024-01-11T16:31:27.097Z,12.60
2024-01-11T16:34:00.204Z,16.92
2024-01-11T16:36:31.694Z,13.60
2024-01-11T16:39:04.619Z,13.10
2024-01-11T16:41:36.289Z,12.55
2024-01-11T16:44:11.645Z,12.00
2024-01-11T16:46:43.954Z,12.52
2024-01-11T16:49:15.497Z,11.30
2024-01-11T16:51:51.381Z,10.75
2024-01-11T16:54:24.856Z,11.77
2024-01-11T16:56:55.480Z,13.45
2024-01-11T16:59:28.314Z,12.05
2024-01-11T17:01:59.165Z,13.82
2024-01-11T17:04:31.018Z,12.07
2024-01-11T17:07:02.623Z,11.52
2024-01-11T17:09:34.371Z,16.10
2024-01-11T17:12:04.781Z,14.20
2024-01-11T17:14:37.979Z,15.05
2024-01-11T17:17:09.910Z,15.70
2024-01-11T17:19:41.072Z,14.27
2024-01-11T17:22:13.464Z,12.55
2024-01-11T17:24:45.133Z,13.93
2024-01-11T17:27:19.372Z,17.98
2024-01-11T17:29:49.805Z,15.48
2024-01-11T17:32:23.022Z,17.23
2024-01-11T17:34:57.145Z,15.82
2024-01-11T17:37:29.339Z,20.17
2024-01-11T17:40:02.732Z,19.33
2024-01-11T17:45:07.169Z,22.52
2024-01-11T17:47:40.480Z,22.60
2024-01-11T17:50:12.540Z,22.50
2024-01-11T17:52:47.782Z,25.63
2024-01-11T17:55:19.015Z,23.85
2024-01-11T17:57:51.104Z,25.42
2024-01-11T18:00:31.143Z,21.42
2024-01-11T18:05:52.147Z,23.52
2024-01-11T18:08:22.614Z,24.02
2024-01-11T18:10:55.656Z,29.60
2024-01-11T18:13:26.801Z,27.40
2024-01-11T18:15:57.278Z,29.15
2024-01-11T18:18:34.867Z,29.73
2024-01-11T18:21:08.185Z,23.33
2024-01-11T18:23:38.707Z,24.60
2024-01-11T18:26:12.149Z,26.45
2024-01-11T18:28:46.309Z,23.15
2024-01-11T18:31:19.850Z,27.73
2024-01-11T18:33:53.353Z,27.08
2024-01-11T18:36:28.581Z,27.88
2024-01-11T18:39:00.461Z,26.67
2024-01-11T18:41:32.208Z,30.77
2024-01-11T18:44:03.096Z,46.03
2024-01-11T18:46:43.303Z,26.15
2024-01-11T18:49:14.335Z,24.52
2024-01-11T18:51:46.742Z,29.15
2024-01-11T18:54:17.457Z,29.77
2024-01-11T18:56:48.130Z,26.52
2024-01-11T18:59:18.624Z,30.60
2024-01-11T19:01:50.849Z,33.80
2024-01-11T19:04:21.898Z,33.20
2024-01-11T19:06:59.506Z,35.90
2024-01-11T19:09:30.981Z,28.15
2024-01-11T19:12:01.993Z,34.80
2024-01-11T19:14:36.605Z,26.70
2024-01-11T19:17:10.666Z,38.00
2024-01-11T19:19:41.370Z,48.15
2024-01-11T19:22:14.396Z,32.42
2024-01-11T19:24:47.437Z,31.00
2024-01-11T19:27:18.114Z,48.33
2024-01-11T19:29:49.310Z,32.22
2024-01-11T19:32:27.869Z,32.17
2024-01-11T19:34:59.019Z,36.15
2024-01-11T19:37:29.913Z,34.50
2024-01-11T19:40:01.320Z,28.60
2024-01-11T19:42:34.845Z,36.45
2024-01-11T19:45:05.320Z,30.67
2024-01-11T19:47:42.130Z,37.00
2024-01-11T19:50:14.356Z,29.98
2024-01-11T19:52:54.275Z,31.75
2024-01-11T19:55:26.587Z,32.17
2024-01-11T19:57:57.745Z,29.52
2024-01-11T20:00:31.288Z,32.15
2024-01-11T20:03:16.717Z,32.40
2024-01-11T20:05:47.810Z,28.70
2024-01-11T20:08:25.986Z,31.98
2024-01-11T20:11:02.735Z,36.33
2024-01-11T20:13:36.214Z,32.42
2024-01-11T20:16:09.472Z,36.80
2024-01-11T20:18:40.005Z,33.05
2024-01-11T20:21:14.506Z,36.15
2024-01-11T20:23:46.434Z,40.55
2024-01-11T20:26:24.804Z,38.00
2024-01-11T20:29:00.620Z,33.07
2024-01-11T20:31:35.045Z,42.42
2024-01-11T20:34:08.425Z,33.83
2024-01-11T20:36:39.962Z,36.95
2024-01-11T20:39:13.275Z,37.28
2024-01-11T20:41:46.171Z,36.10
2024-01-11T20:44:22.116Z,40.05
2024-01-11T20:46:52.644Z,44.10
2024-01-11T20:49:23.087Z,43.38
2024-01-11T20:51:58.779Z,42.88
2024-01-11T20:54:31.311Z,36.83
2024-01-11T20:57:03.860Z,46.00
2024-01-11T20:59:36.899Z,36.20
2024-01-11T21:02:15.047Z,40.22
2024-01-11T21:04:50.754Z,36.33
2024-01-11T21:07:21.428Z,39.92
2024-01-11T21:09:54.984Z,42.90
2024-01-11T21:12:25.646Z,35.75
2024-01-11T21:14:56.003Z,41.65
2024-01-11T21:17:26.437Z,32.92
2024-01-11T21:19:57.772Z,32.85
2024-01-11T21:22:28.424Z,38.15
2024-01-11T21:25:01.089Z,40.50
2024-01-11T21:27:36.724Z,44.13
2024-01-11T21:30:08.210Z,38.03
2024-01-11T21:33:00.301Z,37.83
2024-01-11T21:35:31.052Z,36.35
2024-01-11T21:38:01.885Z,44.58
2024-01-11T21:40:34.876Z,43.55
2024-01-11T21:43:09.994Z,43.40
2024-01-11T21:45:40.576Z,40.78
2024-01-11T21:48:14.693Z,41.17
2024-01-11T21:50:49.844Z,42.95
2024-01-11T21:53:26.271Z,44.08
2024-01-11T21:55:54.451Z,42.03
2024-01-11T21:58:26.840Z,43.70
2024-01-11T22:00:59.791Z,44.70
2024-01-11T22:03:35.237Z,46.38
2024-01-11T22:06:08.751Z,38.97
2024-01-11T22:08:41.518Z,50.03
2024-01-11T22:11:15.145Z,39.92
2024-01-11T22:13:49.899Z,50.58
2024-01-11T22:16:24.338Z,54.28
2024-01-11T22:18:56.814Z,49.30
2024-01-11T22:21:29.115Z,46.28
2024-01-11T22:24:03.752Z,42.30
2024-01-11T22:26:38.511Z,42.00
2024-01-11T22:29:12.116Z,53.03
2024-01-11T22:31:42.435Z,50.33
2024-01-11T22:34:13.285Z,47.65
2024-01-11T22:36:44.377Z,44.95
2024-01-11T22:39:17.606Z,46.85
2024-01-11T22:41:48.643Z,48.28
2024-01-11T22:44:21.489Z,47.80
2024-01-11T22:46:57.532Z,51.03
2024-01-11T22:49:29.274Z,48.53
2024-01-11T22:51:59.569Z,47.22
2024-01-11T22:54:32.766Z,57.55
2024-01-11T22:57:06.125Z,46.65
2024-01-11T22:59:37.128Z,58.03
2024-01-11T23:02:08.697Z,51.80
2024-01-11T23:04:40.802Z,53.10
2024-01-11T23:07:11.009Z,53.58
2024-01-11T23:09:43.534Z,45.28
2024-01-11T23:12:13.739Z,51.35
2024-01-11T23:14:45.121Z,48.80
2024-01-11T23:17:15.702Z,52.92
2024-01-11T23:19:48.564Z,49.53
2024-01-11T23:22:21.777Z,46.28
2024-01-11T23:24:52.405Z,57.67
2024-01-11T23:27:23.152Z,46.65
2024-01-11T23:29:53.493Z,47.75
2024-01-11T23:32:24.650Z,58.38
2024-01-11T23:34:56.080Z,51.25
2024-01-11T23:37:29.080Z,47.80
2024-01-11T23:40:05.093Z,49.13
2024-01-11T23:42:44.113Z,50.47
2024-01-11T23:45:15.185Z,45.72
2024-01-11T23:47:50.964Z,55.15
2024-01-11T23:50:22.629Z,49.85
2024-01-11T23:52:58.355Z,53.78
2024-01-11T23:55:32.273Z,52.53
2024-01-11T23:58:05.059Z,56.25
